Time;durP1;ratioP1;P1;durP2;ratioP2;P2;SDS_P1;SDS_P2;PMS_P1;PMS_P2;Temp;Humidity;BMP_temperature;BMP_pressure;BME280_temperature;BME280_humidity;BME280_pressure;Samples;Min_cycle;Max_cycle;Signal;HPM_P1;HPM_P2
2024/01/13 00:01:26;;;;;;;;;;;3.50;99.90;;;;;;5106127;28;20400;-76
2024/01/13 00:03:54;;;;;;;;;;;3.60;99.90;;;;;;5102928;28;19927;-73
2024/01/13 00:06:22;;;;;;;;;;;3.40;99.90;;;;;;5106686;28;20368;-73
2024/01/13 00:08:50;;;;;;;;;;;3.30;99.90;;;;;;5104082;28;20387;-74
2024/01/13 00:11:18;;;;;;;;;;;3.40;99.90;;;;;;5101438;28;19927;-73
2024/01/13 00:13:46;;;;;;;;;;;3.60;99.90;;;;;;5097517;28;19920;-74
2024/01/13 00:16:14;;;;;;;;;;;3.70;99.90;;;;;;5101474;28;20018;-72
2024/01/13 00:18:43;;;;;;;;;;;3.60;99.90;;;;;;5110614;28;19950;-75
2024/01/13 00:21:11;;;;;;;;;;;3.70;99.90;;;;;;5109289;28;19954;-72
2024/01/13 00:23:39;;;;;;;;;;;3.70;99.90;;;;;;5110343;28;19965;-72
2024/01/13 00:26:07;;;;;;;;;;;3.80;99.90;;;;;;5102472;28;19963;-73
2024/01/13 00:28:35;;;;;;;;;;;3.80;99.90;;;;;;5103221;28;19934;-73
2024/01/13 00:31:05;;;;;;;;;;;3.80;99.90;;;;;;5099880;28;19920;-73
2024/01/13 00:33:35;;;;;;;;;;;3.70;99.90;;;;;;5106500;28;19920;-76
2024/01/13 00:36:05;;;;;;;;;;;3.80;99.90;;;;;;5095689;28;19947;-72
2024/01/13 00:38:34;;;;;;;;;;;3.80;99.90;;;;;;5099336;28;19926;-73
2024/01/13 00:41:04;;;;;;;;;;;3.90;99.90;;;;;;5103903;28;20369;-77
2024/01/13 00:43:34;;;;;;;;;;;3.60;99.90;;;;;;5093927;28;19974;-73
2024/01/13 00:46:02;;;;;;;;;;;3.40;99.90;;;;;;5100287;28;19923;-73
2024/01/13 00:48:30;;;;;;;;;;;3.10;99.90;;;;;;5101467;28;19926;-73
2024/01/13 00:51:10;;;;;;;;;;;2.80;99.90;;;;;;5098486;28;19924;-72
2024/01/13 00:53:39;;;;;;;;;;;2.20;99.90;;;;;;5111512;28;19919;-74
2024/01/13 00:56:07;;;;;;;;;;;2.00;99.90;;;;;;5104661;28;20015;-75
2024/01/13 00:58:36;;;;;;;;;;;1.50;99.90;;;;;;5104156;28;20356;-73
2024/01/13 01:01:11;;;;;;;;;;;1.60;99.90;;;;;;5108312;28;19924;-73
2024/01/13 01:03:41;;;;;;;;;;;2.00;99.90;;;;;;5109847;28;19923;-73
2024/01/13 01:06:10;;;;;;;;;;;2.50;99.90;;;;;;5114945;28;19923;-73
2024/01/13 01:08:38;;;;;;;;;;;2.30;99.90;;;;;;5107750;28;19980;-74
2024/01/13 01:11:07;;;;;;;;;;;1.90;99.90;;;;;;5106438;28;19924;-74
2024/01/13 01:13:36;;;;;;;;;;;1.80;99.90;;;;;;5102334;28;19973;-76
2024/01/13 01:16:04;;;;;;;;;;;1.70;99.90;;;;;;5099213;28;19926;-73
2024/01/13 01:18:32;;;;;;;;;;;2.00;99.90;;;;;;5102949;28;19920;-73
2024/01/13 01:21:14;;;;;;;;;;;2.30;99.90;;;;;;5105303;28;19920;-74
2024/01/13 01:23:45;;;;;;;;;;;2.20;99.90;;;;;;5101235;28;19927;-76
2024/01/13 01:26:13;;;;;;;;;;;2.00;99.90;;;;;;5098352;28;19931;-73
2024/01/13 01:28:41;;;;;;;;;;;1.80;99.90;;;;;;5107756;28;19945;-72
2024/01/13 01:31:08;;;;;;;;;;;1.50;99.90;;;;;;5100841;28;19926;-73
2024/01/13 01:33:37;;;;;;;;;;;1.40;99.90;;;;;;5102007;28;20386;-74
2024/01/13 01:36:07;;;;;;;;;;;1.30;99.90;;;;;;5103473;28;19924;-73
2024/01/13 01:38:37;;;;;;;;;;;1.10;99.90;;;;;;5099334;28;19920;-73
2024/01/13 01:41:11;;;;;;;;;;;1.20;99.90;;;;;;5096129;28;19925;-73
2024/01/13 01:43:39;;;;;;;;;;;1.00;99.90;;;;;;5106199;28;20382;-74
2024/01/13 01:46:08;;;;;;;;;;;0.80;99.90;;;;;;5106848;28;20015;-74
2024/01/13 01:48:36;;;;;;;;;;;1.10;99.90;;;;;;5099638;28;19924;-73
2024/01/13 01:51:09;;;;;;;;;;;1.20;99.90;;;;;;5104469;28;19920;-74
2024/01/13 01:53:39;;;;;;;;;;;1.30;99.90;;;;;;5109486;28;20413;-73
2024/01/13 01:56:09;;;;;;;;;;;1.50;99.90;;;;;;5103180;28;19985;-74
2024/01/13 01:58:37;;;;;;;;;;;1.80;99.90;;;;;;5105666;28;19945;-76
2024/01/13 02:01:06;;;;;;;;;;;2.00;99.90;;;;;;5108663;28;19923;-74
2024/01/13 02:03:35;;;;;;;;;;;2.10;99.90;;;;;;5108855;28;20374;-73
2024/01/13 02:06:03;;;;;;;;;;;2.30;99.90;;;;;;5104349;28;19927;-72
2024/01/13 02:08:31;;;;;;;;;;;2.30;99.90;;;;;;5108108;28;20257;-73
2024/01/13 02:11:10;;;;;;;;;;;2.10;99.90;;;;;;5102441;28;20352;-73
2024/01/13 02:13:38;;;;;;;;;;;1.90;99.90;;;;;;5121674;27;19919;-74
2024/01/13 02:16:07;;;;;;;;;;;1.80;99.90;;;;;;5103620;28;19969;-74
2024/01/13 02:18:35;;;;;;;;;;;1.60;99.90;;;;;;5108264;28;19927;-74
2024/01/13 02:21:08;;;;;;;;;;;2.00;99.90;;;;;;5108426;28;19926;-72
2024/01/13 02:23:38;;;;;;;;;;;2.40;99.90;;;;;;5108917;27;20036;-74
2024/01/13 02:26:06;;;;;;;;;;;2.50;99.90;;;;;;5109880;28;19920;-74
2024/01/13 02:28:34;;;;;;;;;;;2.20;99.90;;;;;;5108253;28;20436;-74
2024/01/13 02:31:15;;;;;;;;;;;2.30;99.90;;;;;;5107967;28;19920;-73
2024/01/13 02:33:47;;;;;;;;;;;2.70;99.90;;;;;;5097699;27;19920;-74
2024/01/13 02:36:16;;;;;;;;;;;2.90;99.90;;;;;;5108193;27;19919;-74
2024/01/13 02:38:45;;;;;;;;;;;2.90;99.90;;;;;;5109378;27;19969;-74
2024/01/13 02:41:13;;;;;;;;;;;2.90;99.90;;;;;;5111291;27;21030;-73
2024/01/13 02:43:41;;;;;;;;;;;3.00;99.90;;;;;;5111146;28;19958;-74
2024/01/13 02:46:09;;;;;;;;;;;3.00;99.90;;;;;;5107126;28;19920;-74
2024/01/13 02:48:39;;;;;;;;;;;2.70;99.90;;;;;;5105068;28;20436;-73
2024/01/13 02:51:10;;;;;;;;;;;2.60;99.90;;;;;;5107737;28;19972;-76
2024/01/13 02:53:39;;;;;;;;;;;2.20;99.90;;;;;;5107043;28;19923;-74
2024/01/13 02:56:08;;;;;;;;;;;2.10;99.90;;;;;;5103789;28;19919;-74
2024/01/13 02:58:36;;;;;;;;;;;1.70;99.90;;;;;;5109645;28;19920;-76
2024/01/13 03:01:12;;;;;;;;;;;1.60;99.90;;;;;;5099612;28;19966;-75
2024/01/13 03:03:40;;;;;;;;;;;1.50;99.90;;;;;;5107476;28;20371;-75
2024/01/13 03:06:09;;;;;;;;;;;1.80;99.90;;;;;;5104020;28;20011;-74
2024/01/13 03:08:38;;;;;;;;;;;1.50;99.90;;;;;;5109369;28;20034;-74
2024/01/13 03:11:11;;;;;;;;;;;1.50;99.90;;;;;;5108735;28;19919;-73
2024/01/13 03:13:42;;;;;;;;;;;1.80;99.90;;;;;;5097854;28;19954;-75
2024/01/13 03:16:10;;;;;;;;;;;1.80;99.90;;;;;;5102355;28;20291;-74
2024/01/13 03:18:38;;;;;;;;;;;1.70;99.90;;;;;;5101895;28;19920;-74
2024/01/13 03:21:11;;;;;;;;;;;1.90;99.90;;;;;;5088178;28;20309;-74
2024/01/13 03:23:42;;;;;;;;;;;2.00;99.90;;;;;;5105475;28;19923;-73
2024/01/13 03:26:12;;;;;;;;;;;2.30;99.90;;;;;;5115667;27;20411;-76
2024/01/13 03:28:40;;;;;;;;;;;1.80;99.90;;;;;;5109047;28;20290;-73
2024/01/13 03:31:10;;;;;;;;;;;1.80;99.90;;;;;;5105568;28;19920;-73
2024/01/13 03:33:42;;;;;;;;;;;1.80;99.90;;;;;;5094884;28;20356;-75
2024/01/13 03:36:10;;;;;;;;;;;1.90;99.90;;;;;;5100908;28;19920;-75
2024/01/13 03:38:39;;;;;;;;;;;2.10;99.90;;;;;;5105393;28;20382;-78
2024/01/13 03:41:14;;;;;;;;;;;2.10;99.90;;;;;;5107011;28;19920;-74
2024/01/13 03:43:43;;;;;;;;;;;2.40;99.90;;;;;;5094381;28;19920;-75
2024/01/13 03:46:12;;;;;;;;;;;2.40;99.90;;;;;;5098650;28;20006;-74
2024/01/13 03:48:40;;;;;;;;;;;2.50;99.90;;;;;;5108274;28;20390;-73
2024/01/13 03:51:08;;;;;;;;;;;2.50;99.90;;;;;;5099662;27;19963;-75
2024/01/13 03:53:36;;;;;;;;;;;2.40;99.90;;;;;;5107054;28;20010;-74
2024/01/13 03:56:05;;;;;;;;;;;2.10;99.90;;;;;;5096709;28;20421;-73
2024/01/13 03:58:35;;;;;;;;;;;2.20;99.90;;;;;;5101301;28;20390;-75
2024/01/13 04:01:03;;;;;;;;;;;2.50;99.90;;;;;;5103903;28;19923;-75
2024/01/13 04:03:32;;;;;;;;;;;2.70;99.90;;;;;;5102786;28;19924;-75
2024/01/13 04:06:02;;;;;;;;;;;2.90;99.90;;;;;;5103154;28;19927;-75
2024/01/13 04:08:31;;;;;;;;;;;2.80;99.90;;;;;;5097867;28;19974;-74
2024/01/13 04:10:59;;;;;;;;;;;2.90;99.90;;;;;;5102644;28;19924;-75
2024/01/13 04:13:26;;;;;;;;;;;2.90;99.90;;;;;;5101182;28;20309;-76
2024/01/13 04:15:55;;;;;;;;;;;2.70;99.90;;;;;;5096966;28;20403;-74
2024/01/13 04:18:23;;;;;;;;;;;2.80;99.90;;;;;;5101676;28;19924;-74
2024/01/13 04:20:51;;;;;;;;;;;2.70;99.90;;;;;;5108658;28;19973;-74
2024/01/13 04:23:35;;;;;;;;;;;2.60;99.90;;;;;;5104590;28;19973;-76
2024/01/13 04:26:03;;;;;;;;;;;2.30;99.90;;;;;;5103864;28;20020;-75
2024/01/13 04:28:30;;;;;;;;;;;2.20;99.90;;;;;;5110376;28;19939;-75
2024/01/13 04:31:00;;;;;;;;;;;2.20;99.90;;;;;;5108408;28;19931;-75
2024/01/13 04:33:27;;;;;;;;;;;2.30;99.90;;;;;;5103563;28;20010;-73
2024/01/13 04:35:55;;;;;;;;;;;2.00;99.90;;;;;;5099808;28;19935;-74
2024/01/13 04:38:25;;;;;;;;;;;2.00;99.90;;;;;;5097251;28;19924;-73
2024/01/13 04:40:53;;;;;;;;;;;1.90;99.90;;;;;;5097334;28;20306;-73
2024/01/13 04:43:21;;;;;;;;;;;1.80;99.90;;;;;;5101138;27;20418;-76
2024/01/13 04:45:49;;;;;;;;;;;1.30;99.90;;;;;;5098351;28;19926;-74
2024/01/13 04:48:18;;;;;;;;;;;1.20;99.90;;;;;;5107264;28;19943;-73
2024/01/13 04:50:46;;;;;;;;;;;1.40;99.90;;;;;;5099298;28;20330;-74
2024/01/13 04:53:14;;;;;;;;;;;1.50;99.90;;;;;;5102381;28;19920;-74
2024/01/13 04:55:42;;;;;;;;;;;1.60;99.90;;;;;;5102123;28;19946;-77
2024/01/13 04:58:10;;;;;;;;;;;1.70;99.90;;;;;;5102855;28;20220;-75
2024/01/13 05:00:37;;;;;;;;;;;1.80;99.90;;;;;;5100559;28;20019;-74
2024/01/13 05:03:05;;;;;;;;;;;2.20;99.90;;;;;;5109738;28;20008;-74
2024/01/13 05:05:35;;;;;;;;;;;2.50;99.90;;;;;;5103250;28;20011;-74
2024/01/13 05:08:03;;;;;;;;;;;2.80;99.90;;;;;;5095570;28;19920;-74
2024/01/13 05:10:30;;;;;;;;;;;2.70;99.90;;;;;;5104169;28;20022;-74
2024/01/13 05:12:58;;;;;;;;;;;2.50;99.90;;;;;;5103705;28;19920;-73
2024/01/13 05:15:26;;;;;;;;;;;2.50;99.90;;;;;;5097383;28;19920;-73
2024/01/13 05:17:54;;;;;;;;;;;2.70;99.90;;;;;;5107079;28;19949;-73
2024/01/13 05:20:23;;;;;;;;;;;2.40;99.90;;;;;;5107830;28;20339;-74
2024/01/13 05:22:52;;;;;;;;;;;2.40;99.90;;;;;;5110583;28;19930;-74
2024/01/13 05:25:20;;;;;;;;;;;2.40;99.90;;;;;;5095741;28;19943;-74
2024/01/13 05:27:48;;;;;;;;;;;2.50;99.90;;;;;;5096997;28;19927;-72
2024/01/13 05:30:16;;;;;;;;;;;2.40;99.90;;;;;;5094012;28;19928;-72
2024/01/13 05:32:44;;;;;;;;;;;2.50;99.90;;;;;;5091959;28;19926;-74
2024/01/13 05:35:12;;;;;;;;;;;2.40;99.90;;;;;;5106910;28;20412;-73
2024/01/13 05:37:40;;;;;;;;;;;2.40;99.90;;;;;;5103579;28;19981;-76
2024/01/13 05:40:10;;;;;;;;;;;2.50;99.90;;;;;;5103221;28;20018;-73
2024/01/13 05:42:38;;;;;;;;;;;2.30;99.90;;;;;;5099692;28;19928;-75
2024/01/13 05:45:07;;;;;;;;;;;2.40;99.90;;;;;;5110571;27;19924;-73
2024/01/13 05:47:35;;;;;;;;;;;2.30;99.90;;;;;;5100862;27;19966;-74
2024/01/13 05:50:03;;;;;;;;;;;2.20;99.90;;;;;;5108179;28;19928;-74
2024/01/13 05:52:32;;;;;;;;;;;2.20;99.90;;;;;;5106291;28;20394;-74
2024/01/13 05:55:00;;;;;;;;;;;2.10;99.90;;;;;;5104406;28;19927;-75
2024/01/13 05:57:29;;;;;;;;;;;2.00;99.90;;;;;;5115185;27;19926;-73
2024/01/13 05:59:57;;;;;;;;;;;2.20;99.90;;;;;;5111992;27;19923;-77
2024/01/13 06:02:25;;;;;;;;;;;2.40;99.90;;;;;;5103747;28;19920;-73
2024/01/13 06:04:53;;;;;;;;;;;2.50;99.90;;;;;;5103135;28;19920;-73
2024/01/13 06:07:21;;;;;;;;;;;2.70;99.90;;;;;;5108090;28;20015;-73
2024/01/13 06:10:04;;;;;;;;;;;2.50;99.90;;;;;;5111466;28;20393;-73
2024/01/13 06:12:34;;;;;;;;;;;2.30;99.90;;;;;;5109068;28;19920;-73
2024/01/13 06:15:01;;;;;;;;;;;1.90;99.90;;;;;;5114272;28;19926;-73
2024/01/13 06:17:29;;;;;;;;;;;2.00;99.90;;;;;;5108410;28;19924;-70
2024/01/13 06:19:57;;;;;;;;;;;2.00;99.90;;;;;;5098882;27;20016;-71
2024/01/13 06:22:25;;;;;;;;;;;1.70;99.90;;;;;;5101289;28;19924;-75
2024/01/13 06:24:54;;;;;;;;;;;1.40;99.90;;;;;;5100718;28;20022;-72
2024/01/13 06:27:21;;;;;;;;;;;1.30;99.90;;;;;;5100830;28;19920;-75
2024/01/13 06:29:51;;;;;;;;;;;1.10;99.90;;;;;;5095008;28;20030;-71
2024/01/13 06:32:18;;;;;;;;;;;1.20;99.90;;;;;;5101648;27;19967;-70
2024/01/13 06:34:46;;;;;;;;;;;1.10;99.90;;;;;;5100743;28;19928;-74
2024/01/13 06:37:14;;;;;;;;;;;1.00;99.90;;;;;;5100092;28;19923;-71
2024/01/13 06:39:42;;;;;;;;;;;0.90;99.90;;;;;;5091727;28;19935;-70
2024/01/13 06:42:10;;;;;;;;;;;0.80;99.90;;;;;;5102460;28;20523;-69
2024/01/13 06:44:38;;;;;;;;;;;0.80;99.90;;;;;;5098754;28;19931;-71
2024/01/13 06:47:12;;;;;;;;;;;0.90;99.90;;;;;;5097935;28;19930;-75
2024/01/13 06:49:40;;;;;;;;;;;1.00;99.90;;;;;;5092731;28;19927;-70
2024/01/13 06:52:09;;;;;;;;;;;0.90;99.90;;;;;;5101951;28;19927;-72
2024/01/13 06:54:37;;;;;;;;;;;1.00;99.90;;;;;;5098601;28;19934;-71
2024/01/13 06:57:05;;;;;;;;;;;0.90;99.90;;;;;;5097979;28;19934;-70
2024/01/13 06:59:34;;;;;;;;;;;0.80;99.90;;;;;;5095562;28;20406;-70
2024/01/13 07:02:01;;;;;;;;;;;0.80;99.90;;;;;;5099881;28;19932;-70
2024/01/13 07:04:31;;;;;;;;;;;0.80;99.90;;;;;;5101173;28;19953;-70
2024/01/13 07:06:59;;;;;;;;;;;0.80;99.90;;;;;;5100530;28;19943;-71
2024/01/13 07:09:27;;;;;;;;;;;0.80;99.90;;;;;;5094871;28;19924;-72
2024/01/13 07:11:54;;;;;;;;;;;0.70;99.90;;;;;;5096401;28;19959;-71
2024/01/13 07:14:22;;;;;;;;;;;0.70;99.90;;;;;;5098822;28;19926;-69
2024/01/13 07:16:50;;;;;;;;;;;0.60;99.90;;;;;;5100012;28;19927;-74
2024/01/13 07:19:18;;;;;;;;;;;0.60;99.90;;;;;;5094115;28;19928;-71
2024/01/13 07:21:47;;;;;;;;;;;0.60;99.90;;;;;;5097243;28;19927;-73
2024/01/13 07:24:15;;;;;;;;;;;0.50;99.90;;;;;;5097329;27;19927;-73
2024/01/13 07:26:45;;;;;;;;;;;0.50;99.90;;;;;;5097492;28;19928;-74
2024/01/13 07:29:12;;;;;;;;;;;0.50;99.90;;;;;;5095803;28;19970;-71
2024/01/13 07:31:40;;;;;;;;;;;0.50;99.90;;;;;;5100430;28;19927;-69
2024/01/13 07:34:08;;;;;;;;;;;0.60;99.90;;;;;;5100472;28;19934;-70
2024/01/13 07:36:38;;;;;;;;;;;0.50;99.90;;;;;;5099918;28;19934;-74
2024/01/13 07:39:09;;;;;;;;;;;0.50;99.90;;;;;;5094395;28;19924;-72
2024/01/13 07:41:37;;;;;;;;;;;0.60;99.90;;;;;;5097882;28;19950;-73
2024/01/13 07:44:07;;;;;;;;;;;0.60;99.90;;;;;;5100395;28;19934;-74
2024/01/13 07:46:40;;;;;;;;;;;0.60;99.90;;;;;;5098387;28;19928;-72
2024/01/13 07:49:07;;;;;;;;;;;0.60;99.90;;;;;;5093257;28;20008;-71
2024/01/13 07:51:36;;;;;;;;;;;0.60;99.90;;;;;;5100573;28;20353;-71
2024/01/13 07:54:04;;;;;;;;;;;0.70;99.90;;;;;;5099588;28;20352;-69
2024/01/13 07:56:33;;;;;;;;;;;0.80;99.90;;;;;;5093845;28;19958;-69
2024/01/13 07:59:03;;;;;;;;;;;0.80;99.90;;;;;;5092213;28;20817;-70
2024/01/13 08:01:31;;;;;;;;;;;0.80;99.90;;;;;;5100200;28;19976;-70
2024/01/13 08:04:06;;;;;;;;;;;0.80;99.90;;;;;;5099167;28;21105;-74
2024/01/13 08:06:34;;;;;;;;;;;0.80;99.90;;;;;;5095293;28;19927;-66
2024/01/13 08:09:03;;;;;;;;;;;0.70;99.90;;;;;;5090657;28;20397;-69
2024/01/13 08:11:32;;;;;;;;;;;0.70;99.90;;;;;;5096668;28;20363;-70
2024/01/13 08:14:08;;;;;;;;;;;0.70;99.90;;;;;;5099723;28;19932;-70
2024/01/13 08:16:35;;;;;;;;;;;0.70;99.90;;;;;;5093729;28;19930;-73
2024/01/13 08:19:03;;;;;;;;;;;0.70;99.90;;;;;;5095222;28;19927;-75
2024/01/13 08:21:31;;;;;;;;;;;0.70;99.90;;;;;;5098289;28;20588;-69
2024/01/13 08:24:08;;;;;;;;;;;0.70;99.90;;;;;;5095482;28;19934;-70
2024/01/13 08:26:38;;;;;;;;;;;0.70;99.90;;;;;;5097676;28;20683;-73
2024/01/13 08:29:06;;;;;;;;;;;0.70;99.90;;;;;;5096942;28;20008;-71
2024/01/13 08:31:34;;;;;;;;;;;0.70;99.90;;;;;;5096984;28;19938;-70
2024/01/13 08:34:08;;;;;;;;;;;0.70;99.90;;;;;;5098559;28;20023;-73
2024/01/13 08:36:37;;;;;;;;;;;0.80;99.90;;;;;;5097949;28;19942;-73
2024/01/13 08:39:04;;;;;;;;;;;0.80;99.90;;;;;;5096352;28;19934;-70
2024/01/13 08:41:32;;;;;;;;;;;0.80;99.90;;;;;;5096738;28;19928;-70
2024/01/13 08:44:03;;;;;;;;;;;0.90;99.90;;;;;;5099438;28;19931;-70
2024/01/13 08:46:32;;;;;;;;;;;0.90;99.90;;;;;;5098747;28;19931;-70
2024/01/13 08:49:00;;;;;;;;;;;0.90;99.90;;;;;;5094673;28;19954;-70
2024/01/13 08:51:28;;;;;;;;;;;0.90;99.90;;;;;;5098539;28;19963;-70
2024/01/13 08:54:02;;;;;;;;;;;0.90;99.90;;;;;;5098518;28;19980;-69
2024/01/13 08:56:30;;;;;;;;;;;1.00;99.90;;;;;;5094732;28;20550;-69
2024/01/13 08:58:58;;;;;;;;;;;1.00;99.90;;;;;;5095637;28;19927;-69
2024/01/13 09:01:27;;;;;;;;;;;0.80;99.90;;;;;;5096110;28;19935;-72
2024/01/13 09:04:05;;;;;;;;;;;0.80;99.90;;;;;;5098493;28;19928;-69
2024/01/13 09:06:33;;;;;;;;;;;0.80;99.90;;;;;;5096743;28;19923;-71
2024/01/13 09:09:01;;;;;;;;;;;0.80;99.90;;;;;;5094433;28;19928;-71
2024/01/13 09:11:29;;;;;;;;;;;0.70;99.90;;;;;;5096399;28;19931;-71
2024/01/13 09:14:09;;;;;;;;;;;0.70;99.90;;;;;;5097410;28;19931;-70
2024/01/13 09:16:39;;;;;;;;;;;0.60;99.90;;;;;;5097877;28;19928;-69
2024/01/13 09:19:08;;;;;;;;;;;0.60;99.90;;;;;;5100612;28;19939;-71
2024/01/13 09:21:36;;;;;;;;;;;0.60;99.90;;;;;;5098289;28;20928;-71
2024/01/13 09:24:10;;;;;;;;;;;0.70;99.90;;;;;;5101551;28;19935;-69
2024/01/13 09:26:40;;;;;;;;;;;0.80;99.90;;;;;;5100484;28;19927;-71
2024/01/13 09:29:08;;;;;;;;;;;0.80;99.90;;;;;;5098062;28;19928;-73
2024/01/13 09:31:36;;;;;;;;;;;0.80;99.90;;;;;;5100622;28;19923;-71
2024/01/13 09:34:09;;;;;;;;;;;0.90;99.90;;;;;;5101398;28;20426;-68
2024/01/13 09:36:39;;;;;;;;;;;0.90;99.90;;;;;;5111330;28;20386;-73
2024/01/13 09:39:10;;;;;;;;;;;0.80;99.90;;;;;;5117835;27;19919;-71
2024/01/13 09:41:40;;;;;;;;;;;0.80;99.90;;;;;;5107756;28;19966;-71
2024/01/13 09:44:09;;;;;;;;;;;0.80;99.90;;;;;;5107266;28;20386;-70
2024/01/13 09:46:37;;;;;;;;;;;0.70;99.90;;;;;;5109836;28;19926;-69
2024/01/13 09:49:07;;;;;;;;;;;0.70;99.90;;;;;;5112208;28;19920;-70
2024/01/13 09:51:37;;;;;;;;;;;0.70;99.90;;;;;;5115169;28;19920;-70
2024/01/13 09:54:09;;;;;;;;;;;0.70;99.90;;;;;;5114825;28;20396;-70
2024/01/13 09:56:40;;;;;;;;;;;0.80;99.90;;;;;;5114570;28;20005;-72
2024/01/13 09:59:08;;;;;;;;;;;0.90;99.90;;;;;;5113241;28;20286;-70
2024/01/13 10:01:36;;;;;;;;;;;1.00;99.90;;;;;;5108817;28;19931;-70
2024/01/13 10:04:05;;;;;;;;;;;1.10;99.90;;;;;;5113925;28;19957;-70
2024/01/13 10:06:33;;;;;;;;;;;1.20;99.90;;;;;;5103997;22;19921;-66
2024/01/13 10:09:03;;;;;;;;;;;1.30;99.90;;;;;;5064844;28;19931;-66
2024/01/13 10:11:50;;;;;;;;;;;1.40;99.90;;;;;;5045261;28;19925;-64
2024/01/13 10:14:18;;;;;;;;;;;1.50;99.90;;;;;;5043096;28;20572;-65
2024/01/13 10:16:46;;;;;;;;;;;1.50;99.90;;;;;;5056580;28;19928;-65
2024/01/13 10:19:14;;;;;;;;;;;1.60;99.90;;;;;;5061842;28;19931;-65
2024/01/13 10:21:42;;;;;;;;;;;1.60;99.90;;;;;;5062448;28;19935;-65
2024/01/13 10:24:11;;;;;;;;;;;1.70;99.90;;;;;;5061876;28;20050;-65
2024/01/13 10:26:40;;;;;;;;;;;1.80;99.90;;;;;;5061075;28;20494;-65
2024/01/13 10:29:08;;;;;;;;;;;1.90;99.90;;;;;;5060493;28;19924;-65
2024/01/13 10:31:37;;;;;;;;;;;1.90;99.90;;;;;;5062253;28;19928;-65
2024/01/13 10:34:09;;;;;;;;;;;1.90;99.90;;;;;;5060707;28;20662;-65
2024/01/13 10:36:38;;;;;;;;;;;1.80;99.90;;;;;;5060511;28;19935;-65
2024/01/13 10:39:07;;;;;;;;;;;1.90;99.90;;;;;;5059892;28;19928;-65
2024/01/13 10:41:38;;;;;;;;;;;1.80;99.90;;;;;;5061785;28;20382;-65
2024/01/13 10:44:09;;;;;;;;;;;1.70;99.90;;;;;;5061733;28;19999;-65
2024/01/13 10:46:37;;;;;;;;;;;1.70;99.90;;;;;;5061090;28;19928;-65
2024/01/13 10:49:10;;;;;;;;;;;1.70;99.90;;;;;;5061730;28;19925;-65
2024/01/13 10:51:43;;;;;;;;;;;1.70;99.90;;;;;;5062229;28;19929;-65
2024/01/13 10:54:13;;;;;;;;;;;1.70;99.90;;;;;;5060211;28;20465;-65
2024/01/13 10:56:43;;;;;;;;;;;1.70;99.90;;;;;;5060316;28;19931;-64
2024/01/13 10:59:11;;;;;;;;;;;1.70;99.90;;;;;;5060451;28;19928;-65
2024/01/13 11:01:39;;;;;;;;;;;1.70;99.90;;;;;;5059323;28;20906;-66
2024/01/13 11:04:09;;;;;;;;;;;1.70;99.90;;;;;;5061773;28;20355;-65
2024/01/13 11:06:37;;;;;;;;;;;1.70;99.90;;;;;;5061559;28;19958;-66
2024/01/13 11:09:07;;;;;;;;;;;1.80;99.90;;;;;;5060621;28;20379;-65
2024/01/13 11:11:39;;;;;;;;;;;1.80;99.90;;;;;;5059802;28;20303;-65
2024/01/13 11:14:17;;;;;;;;;;;1.80;99.90;;;;;;5060000;28;19928;-65
2024/01/13 11:16:45;;;;;;;;;;;1.80;99.90;;;;;;5059797;28;19928;-65
2024/01/13 11:19:13;;;;;;;;;;;1.70;99.90;;;;;;5059767;28;19999;-66
2024/01/13 11:21:47;;;;;;;;;;;1.70;99.90;;;;;;5060921;28;20011;-65
2024/01/13 11:24:17;;;;;;;;;;;1.70;99.90;;;;;;5069613;28;19936;-67
2024/01/13 11:26:46;;;;;;;;;;;1.70;99.90;;;;;;5070282;28;19930;-67
2024/01/13 11:29:19;;;;;;;;;;;1.70;99.90;;;;;;5071553;28;20424;-67
2024/01/13 11:31:47;;;;;;;;;;;1.70;99.90;;;;;;5076834;28;19927;-66
2024/01/13 11:34:16;;;;;;;;;;;1.70;99.90;;;;;;5091756;28;19970;-66
2024/01/13 11:36:47;;;;;;;;;;;1.70;99.90;;;;;;5091880;28;19970;-66
2024/01/13 11:39:17;;;;;;;;;;;1.70;99.90;;;;;;5091716;28;20348;-65
2024/01/13 11:41:45;;;;;;;;;;;1.70;99.90;;;;;;5082388;28;19970;-67
2024/01/13 11:44:21;;;;;;;;;;;1.50;99.90;;;;;;5076071;28;20010;-67
2024/01/13 11:46:58;;;;;;;;;;;1.60;99.90;;;;;;5085852;28;19967;-65
2024/01/13 11:49:29;;;;;;;;;;;1.60;99.90;;;;;;5088156;28;19920;-65
2024/01/13 11:51:58;;;;;;;;;;;1.60;99.90;;;;;;5087227;28;19924;-64
2024/01/13 11:54:27;;;;;;;;;;;1.60;99.90;;;;;;5083294;28;19920;-64
2024/01/13 11:56:56;;;;;;;;;;;1.60;99.90;;;;;;5080467;28;19920;-65
2024/01/13 11:59:26;;;;;;;;;;;1.60;99.90;;;;;;5071294;28;19920;-67
2024/01/13 12:02:02;;;;;;;;;;;1.50;99.90;;;;;;5088472;28;19913;-66
2024/01/13 12:04:31;;;;;;;;;;;1.50;99.90;;;;;;5088360;28;19924;-66
2024/01/13 12:06:59;;;;;;;;;;;1.50;99.90;;;;;;5080751;28;20404;-66
2024/01/13 12:09:27;;;;;;;;;;;1.50;99.90;;;;;;5067799;28;19979;-66
2024/01/13 12:11:55;;;;;;;;;;;1.50;99.90;;;;;;5068120;28;20446;-65
2024/01/13 12:14:24;;;;;;;;;;;1.50;99.90;;;;;;5029674;22;20004;-72
2024/01/13 12:16:52;;;;;;;;;;;1.60;99.90;;;;;;4966213;28;20511;-72
2024/01/13 12:19:21;;;;;;;;;;;1.60;99.90;;;;;;4957768;28;20448;-69
2024/01/13 12:21:49;;;;;;;;;;;1.60;99.90;;;;;;4960791;28;20386;-70
2024/01/13 12:24:17;;;;;;;;;;;1.60;99.90;;;;;;4963836;28;20300;-70
2024/01/13 12:26:45;;;;;;;;;;;1.60;99.90;;;;;;4965736;28;20403;-69
2024/01/13 12:29:14;;;;;;;;;;;1.60;99.90;;;;;;4946857;28;19926;-70
2024/01/13 12:31:42;;;;;;;;;;;1.60;99.90;;;;;;4954785;28;19985;-72
2024/01/13 12:34:13;;;;;;;;;;;1.60;99.90;;;;;;4963294;28;20355;-71
2024/01/13 12:36:43;;;;;;;;;;;1.60;99.90;;;;;;4957853;28;20005;-70
2024/01/13 12:39:12;;;;;;;;;;;1.70;99.90;;;;;;4957772;28;19981;-69
2024/01/13 12:41:40;;;;;;;;;;;1.70;99.90;;;;;;4962302;28;20025;-71
2024/01/13 12:44:23;;;;;;;;;;;1.70;99.90;;;;;;4962763;28;19989;-71
2024/01/13 12:46:54;;;;;;;;;;;1.70;99.90;;;;;;4951512;28;19930;-71
2024/01/13 12:49:21;;;;;;;;;;;1.70;99.90;;;;;;4949598;28;19938;-75
2024/01/13 12:51:52;;;;;;;;;;;1.60;99.90;;;;;;4952785;28;20327;-70
2024/01/13 12:54:21;;;;;;;;;;;1.60;99.90;;;;;;4955346;28;19927;-70
2024/01/13 12:56:52;;;;;;;;;;;1.60;99.90;;;;;;4960192;28;19954;-71
2024/01/13 12:59:20;;;;;;;;;;;1.60;99.90;;;;;;4946308;28;19926;-72
2024/01/13 13:01:48;;;;;;;;;;;1.60;99.90;;;;;;4957732;28;20359;-70
2024/01/13 13:04:16;;;;;;;;;;;1.60;99.90;;;;;;4957243;28;20355;-74
2024/01/13 13:06:44;;;;;;;;;;;1.50;99.90;;;;;;4961125;28;20018;-73
2024/01/13 13:09:13;;;;;;;;;;;1.50;99.90;;;;;;4946572;28;20408;-71
2024/01/13 13:11:41;;;;;;;;;;;1.50;99.90;;;;;;4946839;28;20381;-71
2024/01/13 13:14:09;;;;;;;;;;;1.50;99.90;;;;;;4956163;28;19926;-71
2024/01/13 13:16:37;;;;;;;;;;;1.50;99.90;;;;;;4952893;28;19933;-70
2024/01/13 13:19:08;;;;;;;;;;;1.60;99.90;;;;;;4953864;28;19926;-71
2024/01/13 13:21:36;;;;;;;;;;;1.60;99.90;;;;;;4952153;28;19933;-70
2024/01/13 13:24:04;;;;;;;;;;;1.50;99.90;;;;;;4960318;28;19933;-70
2024/01/13 13:26:35;;;;;;;;;;;1.50;99.90;;;;;;4967775;28;19926;-73
2024/01/13 13:29:03;;;;;;;;;;;1.60;99.90;;;;;;4952298;28;20373;-73
2024/01/13 13:31:31;;;;;;;;;;;1.60;99.90;;;;;;4943924;28;19927;-71
2024/01/13 13:34:00;;;;;;;;;;;1.50;99.90;;;;;;4965500;28;19938;-70
2024/01/13 13:36:28;;;;;;;;;;;1.50;99.90;;;;;;4951993;28;19965;-70
2024/01/13 13:38:56;;;;;;;;;;;1.50;99.90;;;;;;4966297;28;20398;-70
2024/01/13 13:41:24;;;;;;;;;;;1.50;99.90;;;;;;4959829;28;19932;-72
2024/01/13 13:43:53;;;;;;;;;;;1.50;99.90;;;;;;4960064;28;19926;-70
2024/01/13 13:46:20;;;;;;;;;;;1.50;99.90;;;;;;4959684;28;19933;-70
2024/01/13 13:48:48;;;;;;;;;;;1.50;99.90;;;;;;4960040;28;19930;-72
2024/01/13 13:51:16;;;;;;;;;;;1.50;99.90;;;;;;4967646;28;19930;-72
2024/01/13 13:53:44;;;;;;;;;;;1.40;99.90;;;;;;4951526;28;20035;-70
2024/01/13 13:56:12;;;;;;;;;;;1.40;99.90;;;;;;4959423;28;19933;-70
2024/01/13 13:58:40;;;;;;;;;;;1.50;99.90;;;;;;4943798;28;19927;-70
2024/01/13 14:01:09;;;;;;;;;;;1.50;99.90;;;;;;4958160;28;19932;-72
2024/01/13 14:03:37;;;;;;;;;;;1.50;99.90;;;;;;4954585;28;19927;-72
2024/01/13 14:06:06;;;;;;;;;;;1.50;99.90;;;;;;4964750;28;20034;-69
2024/01/13 14:08:34;;;;;;;;;;;1.50;99.90;;;;;;4969841;28;19969;-72
2024/01/13 14:11:03;;;;;;;;;;;1.40;99.90;;;;;;4955397;28;19927;-73
2024/01/13 14:13:31;;;;;;;;;;;1.50;99.90;;;;;;4959429;28;19926;-71
2024/01/13 14:15:59;;;;;;;;;;;1.40;99.90;;;;;;4951666;28;19926;-69
2024/01/13 14:18:33;;;;;;;;;;;1.40;99.90;;;;;;4959619;28;20393;-69
2024/01/13 14:21:01;;;;;;;;;;;1.30;99.90;;;;;;4951323;28;19926;-67
2024/01/13 14:23:29;;;;;;;;;;;1.40;99.90;;;;;;4951511;28;20409;-70
2024/01/13 14:25:59;;;;;;;;;;;1.30;99.90;;;;;;4962351;28;19983;-70
2024/01/13 14:28:26;;;;;;;;;;;1.40;99.90;;;;;;4945921;28;20390;-70
2024/01/13 14:30:56;;;;;;;;;;;1.30;99.90;;;;;;4955910;28;19933;-71
2024/01/13 14:33:24;;;;;;;;;;;1.40;99.90;;;;;;4970506;28;19977;-70
2024/01/13 14:35:54;;;;;;;;;;;1.30;99.90;;;;;;4958217;28;19934;-70
2024/01/13 14:38:22;;;;;;;;;;;1.20;99.90;;;;;;4959563;28;20021;-69
2024/01/13 14:40:50;;;;;;;;;;;1.30;99.90;;;;;;4966488;28;19938;-70
2024/01/13 14:43:17;;;;;;;;;;;1.30;99.90;;;;;;4953437;28;19931;-70